sensor_id;sensor_type;location;lat;lon;timestamp;pressure;altitude;pressure_sealevel;temperature;humidity
62103;BME280;48077;48.104;11.702;2023-02-23T00:02:15;95134.88;;;3.12;93.64
62103;BME280;48077;48.104;11.702;2023-02-23T00:04:39;95133.63;;;3.08;93.36
62103;BME280;48077;48.104;11.702;2023-02-23T00:07:02;95132.81;;;3.08;94.11
62103;BME280;48077;48.104;11.702;2023-02-23T00:09:26;95135.28;;;3.09;94.32
62103;BME280;48077;48.104;11.702;2023-02-23T00:11:57;95130.78;;;3.03;93.62
62103;BME280;48077;48.104;11.702;2023-02-23T00:14:24;95122.00;;;2.96;94.19
62103;BME280;48077;48.104;11.702;2023-02-23T00:16:49;95134.03;;;3.05;93.99
62103;BME280;48077;48.104;11.702;2023-02-23T00:19:13;95135.44;;;3.01;94.36
62103;BME280;48077;48.104;11.702;2023-02-23T00:21:36;95127.91;;;2.98;94.33
62103;BME280;48077;48.104;11.702;2023-02-23T00:26:30;95123.25;;;3.00;94.41
62103;BME280;48077;48.104;11.702;2023-02-23T00:28:57;95136.47;;;3.07;94.50
62103;BME280;48077;48.104;11.702;2023-02-23T00:31:22;95135.88;;;3.04;94.79
62103;BME280;48077;48.104;11.702;2023-02-23T00:33:47;95130.13;;;2.94;94.74
62103;BME280;48077;48.104;11.702;2023-02-23T00:36:13;95127.91;;;2.98;95.05
62103;BME280;48077;48.104;11.702;2023-02-23T00:38:38;95141.75;;;3.07;94.92
62103;BME280;48077;48.104;11.702;2023-02-23T00:41:10;95145.81;;;3.09;95.55
62103;BME280;48077;48.104;11.702;2023-02-23T00:43:35;95137.50;;;3.12;94.90
62103;BME280;48077;48.104;11.702;2023-02-23T00:45:59;95131.16;;;3.00;95.75
62103;BME280;48077;48.104;11.702;2023-02-23T00:48:27;95143.00;;;3.11;96.02
62103;BME280;48077;48.104;11.702;2023-02-23T00:50:58;95140.34;;;3.11;95.90
62103;BME280;48077;48.104;11.702;2023-02-23T00:53:22;95131.41;;;3.05;96.08
62103;BME280;48077;48.104;11.702;2023-02-23T00:55:46;95121.81;;;2.97;96.08
62103;BME280;48077;48.104;11.702;2023-02-23T00:58:09;95093.75;;;2.76;95.98
62103;BME280;48077;48.104;11.702;2023-02-23T01:00:36;95134.63;;;3.00;96.75
62103;BME280;48077;48.104;11.702;2023-02-23T01:03:04;95121.81;;;2.97;96.29
62103;BME280;48077;48.104;11.702;2023-02-23T01:05:32;95123.88;;;3.02;96.39
62103;BME280;48077;48.104;11.702;2023-02-23T01:07:56;95138.09;;;3.08;96.67
62103;BME280;48077;48.104;11.702;2023-02-23T01:10:19;95123.88;;;3.02;96.47
62103;BME280;48077;48.104;11.702;2023-02-23T01:12:46;95124.31;;;3.06;96.56
62103;BME280;48077;48.104;11.702;2023-02-23T01:15:10;95132.63;;;3.09;96.13
62103;BME280;48077;48.104;11.702;2023-02-23T01:17:34;95135.50;;;3.14;95.92
62103;BME280;48077;48.104;11.702;2023-02-23T01:19:57;95118.66;;;3.09;96.72
62103;BME280;48077;48.104;11.702;2023-02-23T01:22:20;95129.03;;;3.17;96.57
62103;BME280;48077;48.104;11.702;2023-02-23T01:24:44;95139.59;;;3.23;96.85
62103;BME280;48077;48.104;11.702;2023-02-23T01:27:07;95139.41;;;3.25;96.29
62103;BME280;48077;48.104;11.702;2023-02-23T01:29:30;95143.25;;;3.29;97.22
62103;BME280;48077;48.104;11.702;2023-02-23T01:31:54;95115.03;;;3.16;97.36
62103;BME280;48077;48.104;11.702;2023-02-23T01:34:19;95139.84;;;3.35;96.96
62103;BME280;48077;48.104;11.702;2023-02-23T01:36:44;95132.78;;;3.36;97.64
62103;BME280;48077;48.104;11.702;2023-02-23T01:39:12;95110.19;;;3.20;97.65
62103;BME280;48077;48.104;11.702;2023-02-23T01:41:35;95132.97;;;3.41;97.82
62103;BME280;48077;48.104;11.702;2023-02-23T01:46:37;95133.63;;;3.50;98.53
62103;BME280;48077;48.104;11.702;2023-02-23T01:49:02;95119.59;;;3.42;98.13
62103;BME280;48077;48.104;11.702;2023-02-23T01:51:30;95105.00;;;3.40;97.57
62103;BME280;48077;48.104;11.702;2023-02-23T01:54:03;95129.00;;;3.58;98.18
62103;BME280;48077;48.104;11.702;2023-02-23T01:56:32;95131.25;;;3.61;98.40
62103;BME280;48077;48.104;11.702;2023-02-23T01:59:00;95130.03;;;3.64;97.90
62103;BME280;48077;48.104;11.702;2023-02-23T02:01:25;95120.69;;;3.61;98.08
62103;BME280;48077;48.104;11.702;2023-02-23T02:03:57;95121.50;;;3.62;98.38
62103;BME280;48077;48.104;11.702;2023-02-23T02:06:23;95126.78;;;3.69;98.48
62103;BME280;48077;48.104;11.702;2023-02-23T02:08:50;95100.00;;;3.58;99.05
62103;BME280;48077;48.104;11.702;2023-02-23T02:11:17;95121.75;;;3.74;99.38
62103;BME280;48077;48.104;11.702;2023-02-23T02:40:41;95105.34;;;3.98;100.00
62103;BME280;48077;48.104;11.702;2023-02-23T02:43:40;95106.16;;;3.99;100.00
62103;BME280;48077;48.104;11.702;2023-02-23T02:46:23;95095.59;;;3.92;99.83
62103;BME280;48077;48.104;11.702;2023-02-23T02:48:53;95092.75;;;3.87;100.00
62103;BME280;48077;48.104;11.702;2023-02-23T02:51:34;95092.75;;;3.87;100.00
62103;BME280;48077;48.104;11.702;2023-02-23T02:56:37;95095.59;;;3.85;100.00
62103;BME280;48077;48.104;11.702;2023-02-23T02:59:02;95097.03;;;3.95;100.00
62103;BME280;48077;48.104;11.702;2023-02-23T03:01:25;95099.66;;;3.95;100.00
62103;BME280;48077;48.104;11.702;2023-02-23T03:04:24;95093.16;;;3.91;100.00
62103;BME280;48077;48.104;11.702;2023-02-23T03:07:44;95101.28;;;3.96;100.00
62103;BME280;48077;48.104;11.702;2023-02-23T03:10:41;95108.00;;;3.98;100.00
62103;BME280;48077;48.104;11.702;2023-02-23T03:16:42;95111.84;;;4.02;100.00
62103;BME280;48077;48.104;11.702;2023-02-23T03:19:34;95089.09;;;3.95;100.00
62103;BME280;48077;48.104;11.702;2023-02-23T03:22:34;95102.50;;;4.00;100.00
62103;BME280;48077;48.104;11.702;2023-02-23T03:28:33;95109.00;;;4.04;100.00
62103;BME280;48077;48.104;11.702;2023-02-23T03:37:27;95111.25;;;4.00;100.00
62103;BME280;48077;48.104;11.702;2023-02-23T03:40:10;95119.78;;;4.02;100.00
62103;BME280;48077;48.104;11.702;2023-02-23T03:42:56;95096.22;;;3.88;100.00
62103;BME280;48077;48.104;11.702;2023-02-23T03:45:42;95106.34;;;3.97;100.00
62103;BME280;48077;48.104;11.702;2023-02-23T03:48:27;95111.03;;;3.95;100.00
62103;BME280;48077;48.104;11.702;2023-02-23T03:51:11;95100.44;;;3.82;100.00
62103;BME280;48077;48.104;11.702;2023-02-23T03:53:58;95123.22;;;3.96;100.00
62103;BME280;48077;48.104;11.702;2023-02-23T03:56:47;95110.63;;;3.92;100.00
62103;BME280;48077;48.104;11.702;2023-02-23T03:59:37;95114.06;;;3.92;100.00
62103;BME280;48077;48.104;11.702;2023-02-23T04:02:22;95128.50;;;3.96;100.00
62103;BME280;48077;48.104;11.702;2023-02-23T04:05:09;95098.41;;;3.77;100.00
62103;BME280;48077;48.104;11.702;2023-02-23T04:07:52;95104.94;;;3.81;100.00
62103;BME280;48077;48.104;11.702;2023-02-23T04:10:42;95102.28;;;3.81;100.00
62103;BME280;48077;48.104;11.702;2023-02-23T04:13:27;95093.53;;;3.81;100.00
62103;BME280;48077;48.104;11.702;2023-02-23T04:16:00;95119.34;;;3.99;100.00
62103;BME280;48077;48.104;11.702;2023-02-23T04:18:29;95118.13;;;4.01;100.00
62103;BME280;48077;48.104;11.702;2023-02-23T04:20:55;95127.69;;;4.02;100.00
62103;BME280;48077;48.104;11.702;2023-02-23T04:23:19;95124.22;;;4.02;100.00
62103;BME280;48077;48.104;11.702;2023-02-23T04:25:44;95122.38;;;3.96;100.00
62103;BME280;48077;48.104;11.702;2023-02-23T04:28:09;95127.28;;;3.99;100.00
62103;BME280;48077;48.104;11.702;2023-02-23T04:30:33;95109.59;;;3.86;100.00
62103;BME280;48077;48.104;11.702;2023-02-23T04:32:56;95119.72;;;3.89;100.00
62103;BME280;48077;48.104;11.702;2023-02-23T04:35:21;95119.34;;;3.85;100.00
62103;BME280;48077;48.104;11.702;2023-02-23T04:37:44;95118.91;;;3.82;100.00
62103;BME280;48077;48.104;11.702;2023-02-23T04:40:08;95113.66;;;3.82;100.00
62103;BME280;48077;48.104;11.702;2023-02-23T04:42:32;95120.75;;;3.88;100.00
62103;BME280;48077;48.104;11.702;2023-02-23T04:44:55;95122.38;;;3.82;100.00
62103;BME280;48077;48.104;11.702;2023-02-23T04:47:20;95112.19;;;3.73;100.00
62103;BME280;48077;48.104;11.702;2023-02-23T04:49:44;95117.69;;;3.78;100.00
62103;BME280;48077;48.104;11.702;2023-02-23T04:52:08;95111.00;;;3.75;100.00
62103;BME280;48077;48.104;11.702;2023-02-23T04:54:31;95120.34;;;3.78;100.00
62103;BME280;48077;48.104;11.702;2023-02-23T04:56:57;95107.94;;;3.65;100.00
62103;BME280;48077;48.104;11.702;2023-02-23T04:59:20;95131.50;;;3.80;100.00
62103;BME280;48077;48.104;11.702;2023-02-23T05:01:44;95113.38;;;3.63;100.00
62103;BME280;48077;48.104;11.702;2023-02-23T05:04:07;95135.13;;;3.79;100.00
62103;BME280;48077;48.104;11.702;2023-02-23T05:06:31;95132.47;;;3.72;100.00
62103;BME280;48077;48.104;11.702;2023-02-23T05:08:54;95132.91;;;3.76;100.00
62103;BME280;48077;48.104;11.702;2023-02-23T05:11:18;95115.84;;;3.65;100.00
62103;BME280;48077;48.104;11.702;2023-02-23T05:13:41;95110.94;;;3.62;100.00
62103;BME280;48077;48.104;11.702;2023-02-23T05:16:05;95136.75;;;3.73;100.00
62103;BME280;48077;48.104;11.702;2023-02-23T05:18:28;95142.41;;;3.70;100.00
62103;BME280;48077;48.104;11.702;2023-02-23T05:20:52;95141.00;;;3.68;100.00
62103;BME280;48077;48.104;11.702;2023-02-23T05:23:16;95139.75;;;3.63;100.00
62103;BME280;48077;48.104;11.702;2023-02-23T05:25:39;95113.13;;;3.45;100.00
62103;BME280;48077;48.104;11.702;2023-02-23T05:28:03;95067.56;;;3.10;100.00
62103;BME280;48077;48.104;11.702;2023-02-23T05:30:27;95114.94;;;3.38;100.00
62103;BME280;48077;48.104;11.702;2023-02-23T05:32:50;95115.31;;;3.35;100.00
62103;BME280;48077;48.104;11.702;2023-02-23T05:35:13;95100.84;;;3.17;100.00
62103;BME280;48077;48.104;11.702;2023-02-23T05:37:37;95138.25;;;3.41;100.00
62103;BME280;48077;48.104;11.702;2023-02-23T05:40:00;95129.53;;;3.34;100.00
62103;BME280;48077;48.104;11.702;2023-02-23T05:42:23;95133.94;;;3.33;100.00
62103;BME280;48077;48.104;11.702;2023-02-23T05:44:47;95142.69;;;3.34;100.00
62103;BME280;48077;48.104;11.702;2023-02-23T05:47:10;95140.63;;;3.29;100.00
62103;BME280;48077;48.104;11.702;2023-02-23T05:49:34;95122.13;;;3.16;100.00
62103;BME280;48077;48.104;11.702;2023-02-23T05:51:57;95142.84;;;3.26;100.00
62103;BME280;48077;48.104;11.702;2023-02-23T05:54:20;95117.00;;;3.08;100.00
62103;BME280;48077;48.104;11.702;2023-02-23T05:56:44;95143.00;;;3.11;100.00
62103;BME280;48077;48.104;11.702;2023-02-23T05:59:07;95147.06;;;3.13;100.00
62103;BME280;48077;48.104;11.702;2023-02-23T06:01:31;95118.53;;;2.89;100.00
62103;BME280;48077;48.104;11.702;2023-02-23T06:03:54;95123.81;;;2.89;100.00
62103;BME280;48077;48.104;11.702;2023-02-23T06:06:18;95137.59;;;2.91;100.00
62103;BME280;48077;48.104;11.702;2023-02-23T06:08:42;95153.88;;;3.01;100.00
62103;BME280;48077;48.104;11.702;2023-02-23T06:11:06;95143.88;;;2.90;100.00
62103;BME280;48077;48.104;11.702;2023-02-23T06:13:30;95141.00;;;2.84;100.00
62103;BME280;48077;48.104;11.702;2023-02-23T06:15:54;95153.41;;;2.91;100.00
62103;BME280;48077;48.104;11.702;2023-02-23T06:18:17;95149.94;;;2.83;100.00
62103;BME280;48077;48.104;11.702;2023-02-23T06:20:41;95134.00;;;2.70;100.00
62103;BME280;48077;48.104;11.702;2023-02-23T06:23:04;95157.00;;;2.83;100.00
62103;BME280;48077;48.104;11.702;2023-02-23T06:25:28;95130.19;;;2.73;100.00
62103;BME280;48077;48.104;11.702;2023-02-23T06:27:51;95161.31;;;2.91;100.00
62103;BME280;48077;48.104;11.702;2023-02-23T06:30:15;95160.31;;;2.92;100.00
62103;BME280;48077;48.104;11.702;2023-02-23T06:32:39;95151.34;;;2.86;100.00
62103;BME280;48077;48.104;11.702;2023-02-23T06:35:04;95148.91;;;2.84;100.00
62103;BME280;48077;48.104;11.702;2023-02-23T06:37:28;95161.13;;;2.92;100.00
62103;BME280;48077;48.104;11.702;2023-02-23T06:39:51;95159.47;;;2.91;100.00
62103;BME280;48077;48.104;11.702;2023-02-23T06:42:15;95152.16;;;2.87;100.00
62103;BME280;48077;48.104;11.702;2023-02-23T06:44:38;95178.22;;;3.03;100.00
62103;BME280;48077;48.104;11.702;2023-02-23T06:47:05;95173.31;;;3.00;100.00
62103;BME280;48077;48.104;11.702;2023-02-23T06:49:28;95171.69;;;2.99;100.00
62103;BME280;48077;48.104;11.702;2023-02-23T06:51:54;95189.41;;;3.12;100.00
62103;BME280;48077;48.104;11.702;2023-02-23T06:54:19;95194.94;;;3.17;100.00
62103;BME280;48077;48.104;11.702;2023-02-23T06:56:42;95174.00;;;3.09;100.00
62103;BME280;48077;48.104;11.702;2023-02-23T06:59:08;95178.25;;;3.10;100.00
62103;BME280;48077;48.104;11.702;2023-02-23T07:01:31;95183.00;;;3.21;100.00
62103;BME280;48077;48.104;11.702;2023-02-23T07:03:55;95171.59;;;3.20;100.00
62103;BME280;48077;48.104;11.702;2023-02-23T07:06:18;95172.03;;;3.24;100.00
62103;BME280;48077;48.104;11.702;2023-02-23T07:08:41;95199.50;;;3.43;100.00
62103;BME280;48077;48.104;11.702;2023-02-23T07:11:10;95192.22;;;3.45;100.00
62103;BME280;48077;48.104;11.702;2023-02-23T07:13:34;95180.72;;;3.53;100.00
62103;BME280;48077;48.104;11.702;2023-02-23T07:15:57;95196.38;;;3.68;100.00
62103;BME280;48077;48.104;11.702;2023-02-23T07:18:20;95165.34;;;3.63;100.00
62103;BME280;48077;48.104;11.702;2023-02-23T07:20:44;95169.59;;;3.71;100.00
62103;BME280;48077;48.104;11.702;2023-02-23T07:23:07;95122.50;;;3.54;100.00
62103;BME280;48077;48.104;11.702;2023-02-23T07:25:30;95169.25;;;3.87;100.00
62103;BME280;48077;48.104;11.702;2023-02-23T07:27:54;95135.13;;;3.72;100.00
62103;BME280;48077;48.104;11.702;2023-02-23T07:30:18;95166.84;;;3.99;100.00
62103;BME280;48077;48.104;11.702;2023-02-23T07:32:42;95170.53;;;4.11;100.00
62103;BME280;48077;48.104;11.702;2023-02-23T07:35:05;95191.91;;;4.30;100.00
62103;BME280;48077;48.104;11.702;2023-02-23T07:37:29;95156.34;;;4.19;100.00
62103;BME280;48077;48.104;11.702;2023-02-23T07:39:52;95171.78;;;4.35;100.00
62103;BME280;48077;48.104;11.702;2023-02-23T07:42:16;95165.91;;;4.40;100.00
62103;BME280;48077;48.104;11.702;2023-02-23T07:44:39;95189.06;;;4.64;100.00
62103;BME280;48077;48.104;11.702;2023-02-23T07:47:02;95180.34;;;4.71;100.00
62103;BME280;48077;48.104;11.702;2023-02-23T07:49:26;95181.34;;;4.83;100.00
62103;BME280;48077;48.104;11.702;2023-02-23T07:51:49;95193.34;;;4.99;100.00
62103;BME280;48077;48.104;11.702;2023-02-23T07:54:13;95189.69;;;5.06;100.00
62103;BME280;48077;48.104;11.702;2023-02-23T07:56:37;95178.88;;;5.08;100.00
62103;BME280;48077;48.104;11.702;2023-02-23T07:59:00;95162.81;;;5.10;100.00
62103;BME280;48077;48.104;11.702;2023-02-23T08:01:23;95179.47;;;5.30;100.00
62103;BME280;48077;48.104;11.702;2023-02-23T08:03:47;95182.50;;;5.34;100.00
62103;BME280;48077;48.104;11.702;2023-02-23T08:06:12;95192.25;;;5.46;100.00
62103;BME280;48077;48.104;11.702;2023-02-23T08:08:35;95179.81;;;5.47;100.00
62103;BME280;48077;48.104;11.702;2023-02-23T08:11:00;95181.63;;;5.53;100.00
62103;BME280;48077;48.104;11.702;2023-02-23T08:13:24;95196.25;;;5.62;100.00
62103;BME280;48077;48.104;11.702;2023-02-23T08:15:47;95206.00;;;5.75;100.00
62103;BME280;48077;48.104;11.702;2023-02-23T08:18:11;95197.22;;;5.75;100.00
62103;BME280;48077;48.104;11.702;2023-02-23T08:20:34;95204.91;;;5.83;100.00
62103;BME280;48077;48.104;11.702;2023-02-23T08:22:58;95209.38;;;5.96;100.00
62103;BME280;48077;48.104;11.702;2023-02-23T08:25:21;95210.38;;;6.01;100.00
62103;BME280;48077;48.104;11.702;2023-02-23T08:27:45;95202.63;;;6.06;100.00
62103;BME280;48077;48.104;11.702;2023-02-23T08:30:11;95184.09;;;6.06;100.00
62103;BME280;48077;48.104;11.702;2023-02-23T08:32:36;95188.75;;;6.11;100.00
62103;BME280;48077;48.104;11.702;2023-02-23T08:35:00;95185.25;;;6.17;100.00
62103;BME280;48077;48.104;11.702;2023-02-23T08:37:24;95202.44;;;6.40;100.00
62103;BME280;48077;48.104;11.702;2023-02-23T08:39:48;95185.72;;;6.39;100.00
62103;BME280;48077;48.104;11.702;2023-02-23T08:42:11;95200.69;;;6.59;100.00
62103;BME280;48077;48.104;11.702;2023-02-23T08:44:34;95200.03;;;6.63;100.00
62103;BME280;48077;48.104;11.702;2023-02-23T08:46:58;95190.41;;;6.69;100.00
62103;BME280;48077;48.104;11.702;2023-02-23T08:49:24;95193.81;;;6.76;100.00
62103;BME280;48077;48.104;11.702;2023-02-23T08:51:47;95180.34;;;6.78;100.00
62103;BME280;48077;48.104;11.702;2023-02-23T08:54:12;95163.47;;;6.72;99.63
62103;BME280;48077;48.104;11.702;2023-02-23T08:56:37;95187.13;;;6.99;99.98
62103;BME280;48077;48.104;11.702;2023-02-23T08:59:00;95198.03;;;7.09;99.51
62103;BME280;48077;48.104;11.702;2023-02-23T09:01:24;95168.56;;;6.99;99.05
62103;BME280;48077;48.104;11.702;2023-02-23T09:03:47;95205.22;;;7.27;99.22
62103;BME280;48077;48.104;11.702;2023-02-23T09:06:14;95209.63;;;7.33;98.68
62103;BME280;48077;48.104;11.702;2023-02-23T09:08:38;95203.69;;;7.38;98.66
62103;BME280;48077;48.104;11.702;2023-02-23T09:11:02;95190.66;;;7.36;98.44
62103;BME280;48077;48.104;11.702;2023-02-23T09:13:25;95175.38;;;7.32;97.97
62103;BME280;48077;48.104;11.702;2023-02-23T09:15:48;95197.88;;;7.47;97.52
62103;BME280;48077;48.104;11.702;2023-02-23T09:18:12;95208.56;;;7.59;97.22
62103;BME280;48077;48.104;11.702;2023-02-23T09:20:41;95195.72;;;7.56;96.76
62103;BME280;48077;48.104;11.702;2023-02-23T09:23:07;95210.72;;;7.69;96.77
62103;BME280;48077;48.104;11.702;2023-02-23T09:25:31;95191.75;;;7.65;96.29
62103;BME280;48077;48.104;11.702;2023-02-23T09:27:55;95195.13;;;7.73;95.63
62103;BME280;48077;48.104;11.702;2023-02-23T09:30:20;95201.78;;;7.82;95.41
62103;BME280;48077;48.104;11.702;2023-02-23T09:32:44;95195.81;;;7.86;95.25
62103;BME280;48077;48.104;11.702;2023-02-23T09:35:07;95206.84;;;8.02;95.34
62103;BME280;48077;48.104;11.702;2023-02-23T09:37:31;95205.59;;;8.04;94.62
62103;BME280;48077;48.104;11.702;2023-02-23T09:39:54;95209.66;;;8.07;94.32
62103;BME280;48077;48.104;11.702;2023-02-23T09:42:39;95207.81;;;8.07;93.21
62103;BME280;48077;48.104;11.702;2023-02-23T09:45:21;95204.56;;;8.05;92.62
62103;BME280;48077;48.104;11.702;2023-02-23T09:48:08;95219.75;;;8.17;93.13
62103;BME280;48077;48.104;11.702;2023-02-23T09:50:36;95215.25;;;8.17;93.08
62103;BME280;48077;48.104;11.702;2023-02-23T09:53:03;95218.84;;;8.23;92.14
62103;BME280;48077;48.104;11.702;2023-02-23T09:55:27;95216.75;;;8.25;92.51
62103;BME280;48077;48.104;11.702;2023-02-23T09:57:52;95214.94;;;8.25;92.51
62103;BME280;48077;48.104;11.702;2023-02-23T10:00:23;95209.47;;;8.20;92.54
62103;BME280;48077;48.104;11.702;2023-02-23T10:03:21;95216.69;;;8.31;92.53
62103;BME280;48077;48.104;11.702;2023-02-23T10:05:45;95207.09;;;8.30;92.36
62103;BME280;48077;48.104;11.702;2023-02-23T10:11:26;95213.94;;;8.38;92.02
62103;BME280;48077;48.104;11.702;2023-02-23T10:20:49;95217.44;;;8.69;90.68
62103;BME280;48077;48.104;11.702;2023-02-23T10:22:46;95188.75;;;8.59;90.30
62103;BME280;48077;48.104;11.702;2023-02-23T10:25:13;95217.00;;;8.84;89.64
62103;BME280;48077;48.104;11.702;2023-02-23T10:27:42;95214.81;;;8.93;89.70
62103;BME280;48077;48.104;11.702;2023-02-23T10:30:18;95216.34;;;9.00;89.00
62103;BME280;48077;48.104;11.702;2023-02-23T10:32:51;95209.75;;;9.03;88.38
62103;BME280;48077;48.104;11.702;2023-02-23T10:35:18;95210.09;;;9.18;87.73
62103;BME280;48077;48.104;11.702;2023-02-23T10:37:43;95211.63;;;9.26;87.74
62103;BME280;48077;48.104;11.702;2023-02-23T10:40:14;95206.31;;;9.38;87.31
62103;BME280;48077;48.104;11.702;2023-02-23T10:42:41;95199.78;;;9.45;86.67
62103;BME280;48077;48.104;11.702;2023-02-23T10:45:14;95211.97;;;9.65;86.26
62103;BME280;48077;48.104;11.702;2023-02-23T10:47:52;95198.16;;;9.68;85.43
62103;BME280;48077;48.104;11.702;2023-02-23T10:50:18;95208.09;;;9.72;85.58
62103;BME280;48077;48.104;11.702;2023-02-23T10:52:44;95209.03;;;9.78;85.00
62103;BME280;48077;48.104;11.702;2023-02-23T10:55:30;95204.06;;;9.82;84.19
62103;BME280;48077;48.104;11.702;2023-02-23T10:58:23;95202.69;;;9.79;83.80
62103;BME280;48077;48.104;11.702;2023-02-23T11:01:03;95186.34;;;9.64;84.10
62103;BME280;48077;48.104;11.702;2023-02-23T11:03:43;95186.72;;;9.56;83.65
62103;BME280;48077;48.104;11.702;2023-02-23T11:06:34;95194.34;;;9.52;84.14
62103;BME280;48077;48.104;11.702;2023-02-23T11:08:57;95194.25;;;9.47;84.38
62103;BME280;48077;48.104;11.702;2023-02-23T11:11:25;95179.44;;;9.39;84.25
62103;BME280;48077;48.104;11.702;2023-02-23T11:13:49;95186.03;;;9.37;84.48
62103;BME280;48077;48.104;11.702;2023-02-23T11:16:16;95183.94;;;9.39;84.43
62103;BME280;48077;48.104;11.702;2023-02-23T11:18:55;95189.84;;;9.41;85.21
62103;BME280;48077;48.104;11.702;2023-02-23T11:21:25;95191.59;;;9.47;84.29
62103;BME280;48077;48.104;11.702;2023-02-23T11:23:52;95184.03;;;9.56;84.22
62103;BME280;48077;48.104;11.702;2023-02-23T11:26:43;95185.91;;;9.67;83.94
62103;BME280;48077;48.104;11.702;2023-02-23T11:29:27;95184.72;;;9.75;83.48
62103;BME280;48077;48.104;11.702;2023-02-23T11:31:56;95179.38;;;9.86;82.40
62103;BME280;48077;48.104;11.702;2023-02-23T11:34:31;95180.50;;;9.90;82.05
62103;BME280;48077;48.104;11.702;2023-02-23T11:39:25;95153.66;;;9.80;81.38
62103;BME280;48077;48.104;11.702;2023-02-23T11:44:34;95167.75;;;10.04;80.16
62103;BME280;48077;48.104;11.702;2023-02-23T11:46:58;95156.16;;;9.99;80.43
62103;BME280;48077;48.104;11.702;2023-02-23T11:49:28;95148.03;;;10.05;79.71
62103;BME280;48077;48.104;11.702;2023-02-23T11:51:54;95152.63;;;10.50;78.53
62103;BME280;48077;48.104;11.702;2023-02-23T11:54:25;95153.59;;;10.61;77.63
62103;BME280;48077;48.104;11.702;2023-02-23T11:56:49;95144.34;;;10.52;78.35
62103;BME280;48077;48.104;11.702;2023-02-23T11:59:18;95151.81;;;10.50;78.56
62103;BME280;48077;48.104;11.702;2023-02-23T12:01:46;95128.59;;;10.33;78.12
62103;BME280;48077;48.104;11.702;2023-02-23T12:04:30;95142.13;;;10.44;77.71
62103;BME280;48077;48.104;11.702;2023-02-23T12:10:16;95151.28;;;10.36;78.22
62103;BME280;48077;48.104;11.702;2023-02-23T12:17:51;95145.19;;;10.69;76.71
62103;BME280;48077;48.104;11.702;2023-02-23T12:20:24;95125.97;;;10.84;75.32
62103;BME280;48077;48.104;11.702;2023-02-23T12:23:11;95132.91;;;11.02;74.72
62103;BME280;48077;48.104;11.702;2023-02-23T12:25:40;95134.63;;;11.08;74.65
62103;BME280;48077;48.104;11.702;2023-02-23T12:28:27;95120.38;;;11.03;74.58
62103;BME280;48077;48.104;11.702;2023-02-23T12:31:34;95128.78;;;11.11;74.93
62103;BME280;48077;48.104;11.702;2023-02-23T12:33:59;95118.66;;;11.13;72.88
62103;BME280;48077;48.104;11.702;2023-02-23T12:36:38;95124.09;;;11.41;70.90
62103;BME280;48077;48.104;11.702;2023-02-23T12:41:40;95124.84;;;11.58;70.94
62103;BME280;48077;48.104;11.702;2023-02-23T12:46:59;95126.91;;;11.51;70.35
62103;BME280;48077;48.104;11.702;2023-02-23T12:49:42;95124.63;;;11.38;70.28
62103;BME280;48077;48.104;11.702;2023-02-23T12:52:19;95085.13;;;11.01;71.39
62103;BME280;48077;48.104;11.702;2023-02-23T12:54:44;95101.69;;;11.03;71.30
62103;BME280;48077;48.104;11.702;2023-02-23T13:00:03;95117.84;;;11.13;70.14
62103;BME280;48077;48.104;11.702;2023-02-23T13:03:06;95101.59;;;10.98;70.60
62103;BME280;48077;48.104;11.702;2023-02-23T13:05:37;95089.91;;;10.82;71.15
62103;BME280;48077;48.104;11.702;2023-02-23T13:08:28;95093.16;;;10.84;71.36
62103;BME280;48077;48.104;11.702;2023-02-23T13:16:31;95105.13;;;10.81;72.03
62103;BME280;48077;48.104;11.702;2023-02-23T13:21:36;95075.63;;;10.71;72.65
62103;BME280;48077;48.104;11.702;2023-02-23T13:24:18;95098.97;;;10.81;72.64
62103;BME280;48077;48.104;11.702;2023-02-23T13:27:03;95103.44;;;10.75;72.28
62103;BME280;48077;48.104;11.702;2023-02-23T13:29:39;95099.63;;;10.71;72.43
62103;BME280;48077;48.104;11.702;2023-02-23T13:32:08;95108.81;;;10.63;72.83
62103;BME280;48077;48.104;11.702;2023-02-23T13:34:38;95106.06;;;10.58;73.20
62103;BME280;48077;48.104;11.702;2023-02-23T13:37:08;95079.41;;;10.41;73.20
62103;BME280;48077;48.104;11.702;2023-02-23T13:39:42;95101.56;;;10.59;73.29
62103;BME280;48077;48.104;11.702;2023-02-23T13:45:21;95037.59;;;10.13;73.91
62103;BME280;48077;48.104;11.702;2023-02-23T13:47:52;95086.53;;;10.36;74.00
62103;BME280;48077;48.104;11.702;2023-02-23T13:53:27;95085.25;;;10.26;74.49
62103;BME280;48077;48.104;11.702;2023-02-23T13:55:57;95099.75;;;10.30;74.80
62103;BME280;48077;48.104;11.702;2023-02-23T13:58:29;95102.03;;;10.27;75.11
62103;BME280;48077;48.104;11.702;2023-02-23T14:01:03;95100.09;;;10.22;76.08
62103;BME280;48077;48.104;11.702;2023-02-23T14:03:29;95093.06;;;10.16;75.29
62103;BME280;48077;48.104;11.702;2023-02-23T14:05:58;95096.00;;;10.15;76.12
62103;BME280;48077;48.104;11.702;2023-02-23T14:08:30;95093.97;;;10.22;76.83
62103;BME280;48077;48.104;11.702;2023-02-23T14:10:54;95079.31;;;10.07;76.37
62103;BME280;48077;48.104;11.702;2023-02-23T14:16:13;95080.81;;;10.15;76.88
62103;BME280;48077;48.104;11.702;2023-02-23T14:22:08;95095.09;;;10.26;76.21
62103;BME280;48077;48.104;11.702;2023-02-23T14:24:32;95099.16;;;10.28;76.13
62103;BME280;48077;48.104;11.702;2023-02-23T14:27:34;95099.84;;;10.36;76.51
62103;BME280;48077;48.104;11.702;2023-02-23T14:32:37;95097.19;;;10.36;76.91
62103;BME280;48077;48.104;11.702;2023-02-23T14:35:01;95071.59;;;10.23;76.72
62103;BME280;48077;48.104;11.702;2023-02-23T14:37:33;95089.41;;;10.34;75.79
62103;BME280;48077;48.104;11.702;2023-02-23T14:40:12;95091.28;;;10.33;75.04
62103;BME280;48077;48.104;11.702;2023-02-23T14:42:40;95087.91;;;10.26;74.76
62103;BME280;48077;48.104;11.702;2023-02-23T14:45:15;95092.91;;;10.23;74.58